createdAt,value
2023-04-23T00:01:50.432Z,16.60
2023-04-23T00:03:54.238Z,16.60
2023-04-23T00:05:59.490Z,16.60
2023-04-23T00:08:02.934Z,16.60
2023-04-23T00:10:09.478Z,16.60
2023-04-23T00:12:13.773Z,16.60
2023-04-23T00:14:17.696Z,16.60
2023-04-23T00:16:21.877Z,16.60
2023-04-23T00:18:25.461Z,16.60
2023-04-23T00:20:29.026Z,16.60
2023-04-23T00:22:36.237Z,16.60
2023-04-23T00:24:40.032Z,16.60
2023-04-23T00:26:43.543Z,16.50
2023-04-23T00:28:47.103Z,16.50
2023-04-23T00:30:50.526Z,16.50
2023-04-23T00:32:54.042Z,16.50
2023-04-23T00:36:57.880Z,16.40
2023-04-23T00:39:02.759Z,16.40
2023-04-23T00:41:06.180Z,16.40
2023-04-23T00:43:17.811Z,16.40
2023-04-23T00:45:21.402Z,16.50
2023-04-23T00:47:24.937Z,16.50
2023-04-23T00:49:28.401Z,16.40
2023-04-23T00:51:32.327Z,16.50
2023-04-23T00:53:40.158Z,16.50
2023-04-23T00:55:45.446Z,16.40
2023-04-23T00:57:48.996Z,16.40
2023-04-23T00:59:55.087Z,16.40
2023-04-23T01:02:01.284Z,16.40
2023-04-23T01:04:05.630Z,16.40
2023-04-23T01:06:09.454Z,16.40
2023-04-23T01:08:13.285Z,16.40
2023-04-23T01:10:32.951Z,16.40
2023-04-23T01:12:37.757Z,16.40
2023-04-23T01:14:41.553Z,16.40
2023-04-23T01:16:45.812Z,16.40
2023-04-23T01:18:49.329Z,16.30
2023-04-23T01:20:53.573Z,16.40
2023-04-23T01:22:58.574Z,16.30
2023-04-23T01:25:02.155Z,16.20
2023-04-23T01:27:06.298Z,16.20
2023-04-23T01:29:09.993Z,16.20
2023-04-23T01:31:14.684Z,16.30
2023-04-23T01:33:18.142Z,16.30
2023-04-23T01:35:21.784Z,16.30
2023-04-23T01:37:25.362Z,16.30
2023-04-23T01:39:30.222Z,16.30
2023-04-23T01:41:45.482Z,16.30
2023-04-23T01:43:48.963Z,16.30
2023-04-23T01:45:52.978Z,16.30
2023-04-23T01:47:56.449Z,16.30
2023-04-23T01:49:59.902Z,16.30
2023-04-23T01:52:04.121Z,16.30
2023-04-23T01:54:07.601Z,16.30
2023-04-23T01:56:34.185Z,16.30
2023-04-23T01:58:37.815Z,16.20
2023-04-23T02:00:41.428Z,16.20
2023-04-23T02:02:45.384Z,16.20
2023-04-23T02:04:48.935Z,16.20
2023-04-23T02:06:52.477Z,16.20
2023-04-23T02:08:55.911Z,16.20
2023-04-23T02:11:04.948Z,16.20
2023-04-23T02:13:09.865Z,16.20
2023-04-23T02:15:13.267Z,16.20
2023-04-23T02:17:16.668Z,16.20
2023-04-23T02:19:20.050Z,16.20
2023-04-23T02:21:23.621Z,16.20
2023-04-23T02:23:27.180Z,16.20
2023-04-23T02:25:43.627Z,16.10
2023-04-23T02:27:47.097Z,16.10
2023-04-23T02:29:52.064Z,16.10
2023-04-23T02:31:55.670Z,16.10
2023-04-23T02:33:59.249Z,16.10
2023-04-23T02:36:02.755Z,16.10
2023-04-23T02:38:06.233Z,16.10
2023-04-23T02:40:23.333Z,16.10
2023-04-23T02:42:27.214Z,16.10
2023-04-23T02:44:30.678Z,16.10
2023-04-23T02:46:37.487Z,16.10
2023-04-23T02:48:41.542Z,16.00
2023-04-23T02:50:44.970Z,16.10
2023-04-23T02:52:49.939Z,16.10
2023-04-23T02:54:53.484Z,16.10
2023-04-23T02:56:57.627Z,16.10
2023-04-23T02:59:01.520Z,16.10
2023-04-23T03:01:05.407Z,16.10
2023-04-23T03:03:12.470Z,16.10
2023-04-23T03:05:16.336Z,16.10
2023-04-23T03:07:19.892Z,16.10
2023-04-23T03:09:23.338Z,16.20
2023-04-23T03:13:27.328Z,16.30
2023-04-23T03:15:30.808Z,16.30
2023-04-23T03:17:34.451Z,16.30
2023-04-23T03:19:39.371Z,16.30
2023-04-23T03:21:43.225Z,16.40
2023-04-23T03:23:46.548Z,16.50
2023-04-23T03:25:50.154Z,16.40
2023-04-23T03:27:53.806Z,16.50
2023-04-23T03:29:57.176Z,16.50
2023-04-23T03:32:00.609Z,16.50
2023-04-23T03:34:04.313Z,16.60
2023-04-23T03:36:09.472Z,16.60
2023-04-23T03:38:12.934Z,16.60
2023-04-23T03:40:16.368Z,16.60
2023-04-23T03:42:19.761Z,16.70
2023-04-23T03:44:23.301Z,16.70
2023-04-23T03:46:27.174Z,16.70
2023-04-23T03:48:32.004Z,16.70
2023-04-23T03:50:39.160Z,16.70
2023-04-23T03:52:45.365Z,16.70
2023-04-23T03:54:49.393Z,16.60
2023-04-23T03:56:53.050Z,16.60
2023-04-23T03:58:57.019Z,16.60
2023-04-23T04:01:00.538Z,16.60
2023-04-23T04:03:04.596Z,16.60
2023-04-23T04:05:09.517Z,16.60
2023-04-23T04:07:13.447Z,16.60
2023-04-23T04:09:18.971Z,16.60
2023-04-23T04:11:22.612Z,16.50
2023-04-23T04:17:51.740Z,16.50
2023-04-23T04:19:55.456Z,16.40
2023-04-23T04:21:59.011Z,16.40
2023-04-23T04:24:03.240Z,16.40
2023-04-23T04:26:09.156Z,16.40
2023-04-23T04:28:13.018Z,16.40
2023-04-23T04:30:19.358Z,16.40
2023-04-23T04:35:49.899Z,16.40
2023-04-23T04:37:54.210Z,16.30
2023-04-23T04:39:57.802Z,16.30
2023-04-23T04:42:03.125Z,16.40
2023-04-23T04:44:07.502Z,16.40
2023-04-23T04:46:55.857Z,16.40
2023-04-23T04:48:59.506Z,16.40
2023-04-23T04:51:03.540Z,16.40
2023-04-23T04:53:07.681Z,16.40
2023-04-23T04:55:11.822Z,16.40
2023-04-23T04:57:16.747Z,16.30
2023-04-23T04:59:20.219Z,16.30
2023-04-23T05:01:24.983Z,16.30
2023-04-23T05:03:28.815Z,16.30
2023-04-23T05:05:41.635Z,16.30
2023-04-23T05:07:45.254Z,16.30
2023-04-23T05:09:48.705Z,16.30
2023-04-23T05:11:52.204Z,16.30
2023-04-23T05:13:58.652Z,16.40
2023-04-23T05:16:02.120Z,16.40
2023-04-23T05:18:06.501Z,16.40
2023-04-23T05:20:38.180Z,16.60
2023-04-23T05:22:41.805Z,16.70
2023-04-23T05:24:45.695Z,16.70
2023-04-23T05:26:49.450Z,16.70
2023-04-23T05:28:53.078Z,16.70
2023-04-23T05:30:58.153Z,16.80
2023-04-23T05:33:01.765Z,16.90
2023-04-23T05:35:06.193Z,17.00
2023-04-23T05:37:09.705Z,17.30
2023-04-23T05:39:18.835Z,17.50
2023-04-23T05:41:22.529Z,17.80
2023-04-23T05:43:26.409Z,18.00
2023-04-23T05:45:29.834Z,18.20
2023-04-23T05:47:34.979Z,18.30
2023-04-23T05:49:39.939Z,18.40
2023-04-23T05:51:44.769Z,18.40
2023-04-23T05:53:49.547Z,18.40
2023-04-23T05:55:53.488Z,18.50
2023-04-23T05:57:57.579Z,18.50
2023-04-23T06:00:01.465Z,18.60
2023-04-23T06:02:05.198Z,18.80
2023-04-23T06:04:10.687Z,18.80
2023-04-23T06:06:15.341Z,18.80
2023-04-23T06:08:20.513Z,18.80
2023-04-23T06:10:24.657Z,18.80
2023-04-23T06:12:28.412Z,18.80
2023-04-23T06:14:32.225Z,18.70
2023-04-23T06:16:36.010Z,18.50
2023-04-23T06:18:40.302Z,18.30
2023-04-23T06:20:47.795Z,18.20
2023-04-23T06:22:51.444Z,18.10
2023-04-23T06:24:55.148Z,18.10
2023-04-23T06:26:59.313Z,18.20
2023-04-23T06:29:03.073Z,18.50
2023-04-23T06:31:08.121Z,18.70
2023-04-23T06:33:12.651Z,18.80
2023-04-23T06:35:16.559Z,19.00
2023-04-23T06:37:22.141Z,19.10
2023-04-23T06:39:26.247Z,19.40
2023-04-23T06:41:30.344Z,19.60
2023-04-23T06:43:35.271Z,19.70
2023-04-23T06:45:38.948Z,19.90
2023-04-23T06:47:42.515Z,20.10
2023-04-23T06:49:46.656Z,20.00
2023-04-23T06:51:50.300Z,19.90
2023-04-23T06:53:55.533Z,19.80
2023-04-23T06:55:59.137Z,19.80
2023-04-23T06:58:03.747Z,19.70
2023-04-23T07:00:09.365Z,19.50
2023-04-23T07:02:13.407Z,19.50
2023-04-23T07:04:17.614Z,19.50
2023-04-23T07:06:21.477Z,19.50
2023-04-23T07:08:25.643Z,19.60
2023-04-23T07:10:31.161Z,19.70
2023-04-23T07:12:34.954Z,19.70
2023-04-23T07:14:41.920Z,19.80
2023-04-23T07:16:46.679Z,19.90
2023-04-23T07:18:51.176Z,20.00
2023-04-23T07:20:55.055Z,20.20
2023-04-23T07:22:59.140Z,20.20
2023-04-23T07:25:03.183Z,20.10
2023-04-23T07:27:08.610Z,20.10
2023-04-23T07:29:14.412Z,20.10
2023-04-23T07:31:19.700Z,20.00
2023-04-23T07:33:23.794Z,20.00
2023-04-23T07:35:28.569Z,20.10
2023-04-23T07:37:32.461Z,20.00
2023-04-23T07:39:36.344Z,20.00
2023-04-23T07:41:40.474Z,19.90
2023-04-23T07:43:45.922Z,19.70
2023-04-23T07:45:49.729Z,19.70
2023-04-23T07:47:53.720Z,19.80
2023-04-23T07:49:58.056Z,19.80
2023-04-23T07:52:02.481Z,19.70
2023-04-23T07:54:07.073Z,19.70
2023-04-23T07:56:11.440Z,19.80
2023-04-23T07:58:15.068Z,19.90
2023-04-23T08:00:20.875Z,20.00
2023-04-23T08:02:27.001Z,20.30
2023-04-23T08:04:31.174Z,20.70
2023-04-23T08:06:36.127Z,21.10
2023-04-23T08:08:40.092Z,21.40
2023-04-23T08:10:44.450Z,21.50
2023-04-23T08:12:48.669Z,21.40
2023-04-23T08:14:52.763Z,21.50
2023-04-23T08:16:58.276Z,21.70
2023-04-23T08:19:05.896Z,22.00
2023-04-23T08:21:10.240Z,22.40
2023-04-23T08:23:14.313Z,22.80
2023-04-23T08:25:18.352Z,23.00
2023-04-23T08:27:22.075Z,23.30
2023-04-23T08:29:26.132Z,23.30
2023-04-23T08:31:30.059Z,23.20
2023-04-23T08:33:35.489Z,23.10
2023-04-23T08:35:39.570Z,23.00
2023-04-23T08:37:43.353Z,22.90
2023-04-23T08:39:47.115Z,22.80
2023-04-23T08:41:56.611Z,22.80
2023-04-23T08:44:04.381Z,23.00
2023-04-23T08:46:08.885Z,23.10
2023-04-23T08:48:12.934Z,23.30
2023-04-23T08:50:20.275Z,23.40
2023-04-23T08:52:26.048Z,23.60
2023-04-23T08:54:30.407Z,23.60
2023-04-23T08:56:34.713Z,23.40
2023-04-23T08:58:38.491Z,23.20
2023-04-23T09:00:43.007Z,23.10
2023-04-23T09:02:49.667Z,23.10
2023-04-23T09:04:56.204Z,23.20
2023-04-23T09:07:01.704Z,23.50
2023-04-23T09:09:07.589Z,23.70
2023-04-23T09:11:11.504Z,23.90
2023-04-23T09:13:15.458Z,23.90
2023-04-23T09:15:19.225Z,23.90
2023-04-23T09:17:23.324Z,23.90
2023-04-23T09:19:28.899Z,23.90
2023-04-23T09:21:32.397Z,23.80
2023-04-23T09:23:41.456Z,23.70
2023-04-23T09:25:45.181Z,23.60
2023-04-23T09:27:48.865Z,23.60
2023-04-23T09:29:57.598Z,23.60
2023-04-23T09:32:08.666Z,23.60
2023-04-23T09:34:12.578Z,23.50
2023-04-23T09:36:17.262Z,23.50
2023-04-23T09:38:21.500Z,23.40
2023-04-23T09:40:29.063Z,23.40
2023-04-23T09:42:33.783Z,23.40
2023-04-23T09:44:37.532Z,23.30
2023-04-23T09:46:42.615Z,23.20
2023-04-23T09:48:46.755Z,23.20
2023-04-23T09:50:50.582Z,23.20
2023-04-23T09:52:57.408Z,23.30
2023-04-23T09:55:03.240Z,23.40
2023-04-23T09:57:09.107Z,23.50
2023-04-23T09:59:32.122Z,23.80
2023-04-23T10:01:39.759Z,24.00
2023-04-23T10:03:45.297Z,23.80
2023-04-23T10:06:01.259Z,23.70
2023-04-23T10:08:06.029Z,23.60
2023-04-23T10:10:10.854Z,23.50
2023-04-23T10:14:23.282Z,23.50
2023-04-23T10:16:35.521Z,23.80
2023-04-23T10:18:42.435Z,24.10
2023-04-23T10:20:46.423Z,24.30
2023-04-23T10:22:50.360Z,24.40
2023-04-23T10:24:56.492Z,24.20
2023-04-23T10:27:02.032Z,23.90
2023-04-23T10:29:07.736Z,23.80
2023-04-23T10:31:11.636Z,24.00
2023-04-23T10:33:29.055Z,24.00
2023-04-23T10:35:35.071Z,24.00
2023-04-23T10:37:39.958Z,23.90
2023-04-23T10:39:45.910Z,23.70
2023-04-23T10:41:50.206Z,23.60
2023-04-23T10:43:55.747Z,23.60
2023-04-23T10:46:01.873Z,23.70
2023-04-23T10:48:06.123Z,23.70
2023-04-23T10:50:26.487Z,23.70
2023-04-23T10:52:31.032Z,23.70
2023-04-23T10:54:35.008Z,23.70
2023-04-23T10:56:40.582Z,23.80
2023-04-23T10:58:51.609Z,23.80
2023-04-23T11:00:55.236Z,23.90
2023-04-23T11:03:00.816Z,23.90
2023-04-23T11:05:07.503Z,23.90
2023-04-23T11:07:11.830Z,24.00
2023-04-23T11:09:38.840Z,24.10
2023-04-23T11:11:43.053Z,24.40
2023-04-23T11:13:54.561Z,24.60
2023-04-23T11:16:18.796Z,24.90
2023-04-23T11:18:24.480Z,25.20
2023-04-23T11:20:28.190Z,25.40
2023-04-23T11:22:36.812Z,25.40
2023-04-23T11:24:42.647Z,25.30
2023-04-23T11:26:47.067Z,25.00
2023-04-23T11:28:50.923Z,24.80
2023-04-23T11:30:55.594Z,24.60
2023-04-23T11:33:00.800Z,24.30
2023-04-23T11:35:06.580Z,24.00
2023-04-23T11:37:11.854Z,23.70
2023-04-23T11:39:16.127Z,23.50
2023-04-23T11:41:25.097Z,23.20
2023-04-23T11:43:29.535Z,22.70
2023-04-23T11:45:33.611Z,22.40
2023-04-23T11:47:37.628Z,22.10
2023-04-23T11:49:43.098Z,21.80
2023-04-23T11:51:49.005Z,21.50
2023-04-23T11:53:53.184Z,21.20
2023-04-23T11:55:57.147Z,20.80
2023-04-23T11:58:00.729Z,20.50
2023-04-23T12:00:12.813Z,20.10
2023-04-23T12:02:16.582Z,19.70
2023-04-23T12:04:21.812Z,19.50
2023-04-23T12:06:25.480Z,19.50
2023-04-23T12:08:35.043Z,19.60
2023-04-23T12:10:45.814Z,19.90
2023-04-23T12:12:53.736Z,20.20
2023-04-23T12:15:05.546Z,20.60
2023-04-23T12:17:12.176Z,20.90
2023-04-23T12:19:16.433Z,21.30
2023-04-23T12:21:19.991Z,21.50
2023-04-23T12:23:29.492Z,21.60
2023-04-23T12:25:33.420Z,21.90
2023-04-23T12:27:41.168Z,22.30
2023-04-23T12:29:44.845Z,22.70
2023-04-23T12:31:49.079Z,23.20
2023-04-23T12:34:00.596Z,23.60
2023-04-23T12:36:04.115Z,23.90
2023-04-23T12:38:07.840Z,24.30
2023-04-23T12:40:13.557Z,24.60
2023-04-23T12:42:17.712Z,24.70
2023-04-23T12:44:21.725Z,24.60
2023-04-23T12:46:25.593Z,24.50
2023-04-23T12:48:29.617Z,24.60
2023-04-23T12:50:33.357Z,24.80
2023-04-23T12:52:38.512Z,25.00
2023-04-23T12:54:42.276Z,25.10
2023-04-23T12:56:47.342Z,25.20
2023-04-23T12:58:51.094Z,25.50
2023-04-23T13:00:55.092Z,25.80
2023-04-23T13:02:59.204Z,26.10
2023-04-23T13:05:03.095Z,26.40
2023-04-23T13:07:06.657Z,26.60
2023-04-23T13:09:18.938Z,26.70
2023-04-23T13:11:22.543Z,26.70
2023-04-23T13:13:28.644Z,26.70
2023-04-23T13:15:32.216Z,26.70
2023-04-23T13:17:36.036Z,26.70
2023-04-23T13:19:40.781Z,26.50
2023-04-23T13:21:44.482Z,26.50
2023-04-23T13:23:48.508Z,26.40
2023-04-23T13:25:52.087Z,26.40
2023-04-23T13:27:56.493Z,26.40
2023-04-23T13:30:01.842Z,26.50
2023-04-23T13:32:05.957Z,26.60
2023-04-23T13:34:10.078Z,26.70
2023-04-23T13:36:14.064Z,26.80
2023-04-23T13:38:17.877Z,26.90
2023-04-23T13:40:21.740Z,27.00
2023-04-23T13:42:25.873Z,27.00
2023-04-23T13:44:29.634Z,27.00
2023-04-23T13:46:36.063Z,27.10
2023-04-23T13:48:39.865Z,27.50
2023-04-23T13:50:44.945Z,27.80
2023-04-23T13:52:48.781Z,28.10
2023-04-23T13:54:53.162Z,28.30
2023-04-23T13:56:57.322Z,28.60
2023-04-23T13:59:18.453Z,28.80
2023-04-23T14:01:23.195Z,28.80
2023-04-23T14:03:28.204Z,28.50
2023-04-23T14:05:32.456Z,28.20
2023-04-23T14:07:36.017Z,28.20
2023-04-23T14:09:39.909Z,28.30
2023-04-23T14:11:43.769Z,28.50
2023-04-23T14:13:48.340Z,28.60
2023-04-23T14:15:52.002Z,28.60
2023-04-23T14:17:56.553Z,28.70
2023-04-23T14:20:02.976Z,28.80
2023-04-23T14:22:06.901Z,29.10
2023-04-23T14:24:11.996Z,29.30
2023-04-23T14:26:46.770Z,29.40
2023-04-23T14:28:53.146Z,29.30
2023-04-23T14:30:56.886Z,29.30
2023-04-23T14:33:00.665Z,29.20
2023-04-23T14:35:06.722Z,29.20
2023-04-23T14:37:11.800Z,29.20
2023-04-23T14:39:15.351Z,28.90
2023-04-23T14:41:19.481Z,28.80
2023-04-23T14:43:23.630Z,28.70
2023-04-23T14:45:31.494Z,28.80
2023-04-23T14:47:35.785Z,28.90
2023-04-23T14:49:41.032Z,28.90
2023-04-23T14:51:46.501Z,29.00
2023-04-23T14:53:50.479Z,28.80
2023-04-23T14:55:54.246Z,28.60
2023-04-23T14:57:58.529Z,28.30
2023-04-23T15:00:02.393Z,28.10
2023-04-23T15:02:06.289Z,27.80
2023-04-23T15:04:12.040Z,27.50
2023-04-23T15:06:17.277Z,27.30
2023-04-23T15:08:22.524Z,27.10
2023-04-23T15:10:26.385Z,27.00
2023-04-23T15:12:52.877Z,26.80
2023-04-23T15:14:56.892Z,26.70
2023-04-23T15:17:01.248Z,26.60
2023-04-23T15:19:06.554Z,26.50
2023-04-23T15:21:10.327Z,26.50
2023-04-23T15:23:13.960Z,26.40
2023-04-23T15:25:19.636Z,26.40
2023-04-23T15:27:24.636Z,26.20
2023-04-23T15:29:28.525Z,26.10
2023-04-23T15:31:32.486Z,25.90
2023-04-23T15:33:36.326Z,25.80
2023-04-23T15:35:40.386Z,25.70
2023-04-23T15:37:44.493Z,25.60
2023-04-23T15:39:48.031Z,25.50
2023-04-23T15:41:53.957Z,25.40
2023-04-23T15:43:57.791Z,25.30
2023-04-23T15:46:02.068Z,25.10
2023-04-23T15:48:06.069Z,25.00
2023-04-23T15:50:10.544Z,25.00
2023-04-23T15:52:15.633Z,25.00
2023-04-23T15:54:19.635Z,24.90
2023-04-23T15:56:23.402Z,24.90
2023-04-23T15:58:28.497Z,24.90
2023-04-23T16:00:33.811Z,24.80
2023-04-23T16:02:38.193Z,24.70
2023-04-23T16:04:42.574Z,24.70
2023-04-23T16:06:47.845Z,24.50
2023-04-23T16:08:51.579Z,24.40
2023-04-23T16:10:57.248Z,24.30
2023-04-23T16:13:01.337Z,24.20
2023-04-23T16:15:06.988Z,24.10
2023-04-23T16:17:11.200Z,24.00
2023-04-23T16:19:15.356Z,24.00
2023-04-23T16:21:18.999Z,23.80
2023-04-23T16:23:22.601Z,23.70
2023-04-23T16:25:26.139Z,23.60
2023-04-23T16:27:30.279Z,23.50
2023-04-23T16:29:33.982Z,23.30
2023-04-23T16:31:39.415Z,23.10
2023-04-23T16:33:43.736Z,22.70
2023-04-23T16:35:47.506Z,22.00
2023-04-23T16:38:16.389Z,21.10
2023-04-23T16:40:35.620Z,20.20
2023-04-23T16:42:44.265Z,19.40
2023-04-23T16:44:47.999Z,18.80
2023-04-23T16:46:54.166Z,18.40
2023-04-23T16:48:57.855Z,18.20
2023-04-23T16:51:01.592Z,18.00
2023-04-23T16:53:05.534Z,17.80
2023-04-23T16:55:09.789Z,17.60
2023-04-23T16:57:13.741Z,17.50
2023-04-23T16:59:17.438Z,17.40
2023-04-23T17:01:21.281Z,17.30
2023-04-23T17:03:27.230Z,17.10
2023-04-23T17:05:32.229Z,17.00
2023-04-23T17:11:13.274Z,16.70
2023-04-23T17:13:16.912Z,16.70
2023-04-23T17:15:22.936Z,16.80
2023-04-23T17:17:26.682Z,16.80
2023-04-23T17:19:32.268Z,16.90
2023-04-23T17:21:54.772Z,17.00
2023-04-23T17:23:58.729Z,17.10
2023-04-23T17:26:02.781Z,17.20
2023-04-23T17:28:06.567Z,17.30
2023-04-23T17:30:11.494Z,17.40
2023-04-23T17:32:15.210Z,17.50
2023-04-23T17:34:18.789Z,17.50
2023-04-23T17:36:58.860Z,17.60
2023-04-23T17:39:03.053Z,17.60
2023-04-23T17:41:06.843Z,17.60
2023-04-23T17:43:10.354Z,17.60
2023-04-23T17:45:14.146Z,17.50
2023-04-23T17:47:18.180Z,17.50
2023-04-23T17:49:22.537Z,17.50
2023-04-23T17:51:28.886Z,17.40
2023-04-23T17:53:34.172Z,17.40
2023-04-23T17:55:38.118Z,17.40
2023-04-23T17:57:41.818Z,17.30
2023-04-23T17:59:46.046Z,17.30
2023-04-23T18:01:51.038Z,17.30
2023-04-23T18:03:55.288Z,17.30
2023-04-23T18:05:59.005Z,17.30
2023-04-23T18:08:07.140Z,17.40
2023-04-23T18:10:13.105Z,17.30
2023-04-23T18:12:16.999Z,17.30
2023-04-23T18:14:20.616Z,17.30
2023-04-23T18:16:24.307Z,17.20
2023-04-23T18:18:28.378Z,17.20
2023-04-23T18:20:33.483Z,17.20
2023-04-23T18:22:49.596Z,17.10
2023-04-23T18:24:53.310Z,17.10
2023-04-23T18:26:58.801Z,17.10
2023-04-23T18:29:02.651Z,17.10
2023-04-23T18:31:06.760Z,17.10
2023-04-23T18:33:14.980Z,17.10
2023-04-23T18:35:19.576Z,17.20
2023-04-23T18:37:34.310Z,17.10
2023-04-23T18:39:38.020Z,17.20
2023-04-23T18:41:41.826Z,17.10
2023-04-23T18:43:46.982Z,17.10
2023-04-23T18:45:50.847Z,17.10
2023-04-23T18:47:59.459Z,17.10
2023-04-23T18:50:05.813Z,17.00
2023-04-23T18:52:09.676Z,17.00
2023-04-23T18:54:15.142Z,16.90
2023-04-23T18:56:20.251Z,16.90
2023-04-23T18:58:24.179Z,16.90
2023-04-23T19:00:29.218Z,16.80
2023-04-23T19:02:35.600Z,16.80
2023-04-23T19:04:39.689Z,16.80
2023-04-23T19:06:43.717Z,16.80
2023-04-23T19:08:47.906Z,16.80
2023-04-23T19:10:52.023Z,16.80
2023-04-23T19:12:55.680Z,16.80
2023-04-23T19:14:59.307Z,16.80
2023-04-23T19:17:04.411Z,16.90
2023-04-23T19:19:07.987Z,16.90
2023-04-23T19:21:11.553Z,16.90
2023-04-23T19:23:15.273Z,16.90
2023-04-23T19:25:19.063Z,16.90
2023-04-23T19:27:22.688Z,16.90
2023-04-23T19:29:26.338Z,17.00
2023-04-23T19:31:30.321Z,17.00
2023-04-23T19:33:35.752Z,17.00
2023-04-23T19:35:40.384Z,16.90
2023-04-23T19:37:44.266Z,16.80
2023-04-23T19:39:47.891Z,16.70
2023-04-23T19:41:51.747Z,16.80
2023-04-23T19:43:55.303Z,16.70
2023-04-23T19:45:58.837Z,16.70
2023-04-23T19:48:05.042Z,16.70
2023-04-23T19:50:14.067Z,16.70
2023-04-23T19:52:18.744Z,16.70
2023-04-23T19:54:24.386Z,16.70
2023-04-23T19:56:28.666Z,16.70
2023-04-23T19:58:32.301Z,16.70
2023-04-23T20:00:40.021Z,16.80
2023-04-23T20:02:45.049Z,16.90
2023-04-23T20:04:48.872Z,16.90
2023-04-23T20:06:53.849Z,16.80
2023-04-23T20:09:07.831Z,16.80
2023-04-23T20:11:11.745Z,16.80
2023-04-23T20:13:15.405Z,16.80
2023-04-23T20:15:21.783Z,16.70
2023-04-23T20:17:26.855Z,16.70
2023-04-23T20:19:31.498Z,16.80
2023-04-23T20:21:35.211Z,16.80
2023-04-23T20:23:40.315Z,16.80
2023-04-23T20:25:44.038Z,16.80
2023-04-23T20:27:47.692Z,16.90
2023-04-23T20:29:51.695Z,16.80
2023-04-23T20:31:55.638Z,16.80
2023-04-23T20:33:59.406Z,16.70
2023-04-23T20:36:03.263Z,16.70
2023-04-23T20:40:10.736Z,16.60
2023-04-23T20:42:14.592Z,16.60
2023-04-23T20:44:18.288Z,16.50
2023-04-23T20:46:22.585Z,16.50
2023-04-23T20:48:37.853Z,16.60
2023-04-23T20:50:41.374Z,16.50
2023-04-23T20:52:45.320Z,16.40
2023-04-23T20:54:48.847Z,16.40
2023-04-23T20:56:54.568Z,16.50
2023-04-23T20:58:58.795Z,16.40
2023-04-23T21:01:04.460Z,16.40
2023-04-23T21:03:08.209Z,16.40
2023-04-23T21:05:12.832Z,16.40
2023-04-23T21:07:16.493Z,16.30
2023-04-23T21:09:44.248Z,16.30
2023-04-23T21:11:48.279Z,16.30
2023-04-23T21:13:53.192Z,16.20
2023-04-23T21:15:56.894Z,16.20
2023-04-23T21:18:01.095Z,16.20
2023-04-23T21:20:06.037Z,16.10
2023-04-23T21:22:09.694Z,16.10
2023-04-23T21:24:13.180Z,16.10
2023-04-23T21:26:17.065Z,16.10
2023-04-23T21:28:20.820Z,16.10
2023-04-23T21:30:32.693Z,16.00
2023-04-23T21:32:36.291Z,16.00
2023-04-23T21:35:14.839Z,16.00
2023-04-23T21:37:18.505Z,16.00
2023-04-23T21:39:22.567Z,16.00
2023-04-23T21:41:26.332Z,16.00
2023-04-23T21:43:31.590Z,16.00
2023-04-23T21:45:36.669Z,16.10
2023-04-23T21:47:40.199Z,16.00
2023-04-23T21:49:45.364Z,16.00
2023-04-23T21:51:50.295Z,16.00
2023-04-23T21:53:53.771Z,16.10
2023-04-23T21:55:58.655Z,16.20
2023-04-23T21:58:16.481Z,16.20
2023-04-23T22:00:21.176Z,16.20
2023-04-23T22:02:26.429Z,16.30
2023-04-23T22:04:30.808Z,16.30
2023-04-23T22:06:35.326Z,16.30
2023-04-23T22:09:02.143Z,16.20
2023-04-23T22:11:06.175Z,16.10
2023-04-23T22:13:09.781Z,16.20
2023-04-23T22:15:15.201Z,16.20
2023-04-23T22:17:19.128Z,16.20
2023-04-23T22:19:24.218Z,16.20
2023-04-23T22:21:28.404Z,16.20
2023-04-23T22:23:32.190Z,16.20
2023-04-23T22:25:35.827Z,16.20
2023-04-23T22:27:59.767Z,16.20
2023-04-23T22:30:03.323Z,16.20
2023-04-23T22:32:06.734Z,16.20
2023-04-23T22:34:10.204Z,16.20
2023-04-23T22:36:15.351Z,16.20
2023-04-23T22:38:18.990Z,16.20
2023-04-23T22:40:22.875Z,16.10
2023-04-23T22:42:26.717Z,16.20
2023-04-23T22:44:38.247Z,16.20
2023-04-23T22:46:41.859Z,16.10
2023-04-23T22:48:45.558Z,16.10
2023-04-23T22:50:50.936Z,16.10
2023-04-23T22:52:56.285Z,16.10
2023-04-23T22:54:59.714Z,16.20
2023-04-23T22:57:03.584Z,16.20
2023-04-23T22:59:53.614Z,16.20
2023-04-23T23:01:57.056Z,16.20
2023-04-23T23:04:00.666Z,16.30
2023-04-23T23:06:04.244Z,16.30
2023-04-23T23:08:09.330Z,16.30
2023-04-23T23:10:13.022Z,16.20
2023-04-23T23:12:16.500Z,16.20
2023-04-23T23:14:20.013Z,16.20
2023-04-23T23:16:24.208Z,16.10
2023-04-23T23:18:27.563Z,16.10
2023-04-23T23:20:31.199Z,16.10
2023-04-23T23:22:34.856Z,16.00
2023-04-23T23:24:39.804Z,16.00
2023-04-23T23:26:43.354Z,15.80
2023-04-23T23:28:46.727Z,15.70
2023-04-23T23:30:51.567Z,15.70
2023-04-23T23:32:55.148Z,15.60
2023-04-23T23:34:58.760Z,15.50
2023-04-23T23:37:02.188Z,15.50
2023-04-23T23:39:06.888Z,15.50
2023-04-23T23:41:12.084Z,15.40
2023-04-23T23:43:31.972Z,15.40
2023-04-23T23:45:35.373Z,15.30
2023-04-23T23:47:38.784Z,15.30
2023-04-23T23:49:42.911Z,15.30
2023-04-23T23:51:46.766Z,15.20
2023-04-23T23:53:50.151Z,15.20
2023-04-23T23:55:53.738Z,15.20
2023-04-23T23:57:58.670Z,15.20
